EST,Max TemperatureF,Mean TemperatureF,Min TemperatureF,Max Dew PointF,MeanDew PointF,Min DewpointF,Max Humidity, Mean Humidity, Min Humidity, Max Sea Level PressureIn, Mean Sea Level PressureIn, Min Sea Level PressureIn, Max VisibilityMiles, Mean VisibilityMiles, Min VisibilityMiles, Max Wind SpeedMPH, Mean Wind SpeedMPH, Max Gust SpeedMPH,PrecipitationIn, CloudCover, Events, WindDirDegrees
2012-12-1,50,39,28,34,30,23,86,70,50,30.43,30.37,30.32,10,6,3,7,3,,0.00,2,,142
2012-12-2,54,43,33,52,41,31,100,87,66,30.35,30.20,30.08,9,5,1,13,4,,0.01,4,Rain,202
2012-12-3,61,56,50,54,52,48,100,88,72,30.24,30.20,30.14,10,6,0,10,5,,0.03,7,Fog-Rain,210
2012-12-4,66,58,48,54,50,44,100,84,49,30.20,30.14,29.98,10,6,0,21,4,28,0.08,5,Fog-Rain,224
2012-12-5,48,39,28,43,29,19,80,67,58,30.34,30.21,30.05,10,10,10,17,11,25,0.02,5,,302
2012-12-6,39,30,21,23,20,17,85,66,49,30.38,30.29,30.18,10,10,10,7,3,,0.00,0,,168
2012-12-7,37,35,33,37,33,23,100,91,64,30.15,30.05,29.94,10,4,1,7,2,,0.41,8,Rain,174
2012-12-8,55,46,37,49,42,36,100,91,75,30.06,29.92,29.87,10,5,2,12,2,,0.06,7,Rain,231
2012-12-9,48,44,39,43,39,37,100,92,77,30.19,30.10,29.91,10,5,1,8,5,,0.22,8,Rain,65
2012-12-10,54,46,37,51,45,33,100,91,79,29.89,29.70,29.56,10,6,1,18,7,25,0.19,8,Rain,235
2012-12-11,37,35,33,34,29,23,89,77,62,30.22,29.97,29.76,10,10,9,13,9,,0.00,8,Rain,286
2012-12-12,39,33,26,24,22,19,78,65,49,30.46,30.37,30.23,10,10,9,10,5,,0.00,2,,291
2012-12-13,39,30,21,27,21,18,89,71,47,30.49,30.42,30.33,10,8,2,7,1,,0.00,0,,199
2012-12-14,50,37,24,25,21,19,81,56,31,30.32,30.27,30.23,10,10,7,14,3,18,0.00,0,,252
2012-12-15,45,36,27,31,26,22,81,64,49,30.30,30.19,30.05,10,9,7,12,2,,0.00,2,,165
2012-12-16,45,42,39,39,36,29,89,77,60,30.04,29.90,29.81,10,8,4,8,6,,0.01,8,Rain,165
2012-12-17,53,46,39,47,41,39,100,92,80,29.83,29.71,29.54,10,4,2,9,5,,0.48,8,Rain,118
2012-12-18,46,40,35,43,37,28,100,84,70,29.81,29.61,29.50,10,8,0,22,7,30,0.04,7,Fog-Rain,264
2012-12-19,42,38,32,36,32,27,87,77,70,30.19,29.99,29.77,10,9,6,14,6,,0.00,7,,314
2012-12-20,39,34,28,34,31,26,93,85,67,30.19,29.87,29.45,10,5,2,20,8,32,0.82,5,Rain-Snow,146
2012-12-21,37,34,30,37,28,23,100,83,69,29.52,29.38,29.30,10,4,1,28,11,44,0.31,8,Rain-Snow,267
2012-12-22,30,29,28,23,21,18,75,69,61,30.03,29.81,29.48,10,7,2,32,24,48,0.00,8,Snow,291
2012-12-23,43,33,23,24,20,16,75,63,43,30.04,29.97,29.87,10,10,10,16,9,16,0.00,1,,252
2012-12-24,34,28,23,29,25,18,96,85,66,30.05,29.93,29.84,10,4,0,9,3,,0.17,5,Fog-Snow,152
2012-12-25,35,32,30,34,30,23,100,89,75,30.25,30.07,29.85,10,5,1,8,3,,0.00,8,,304
2012-12-26,30,27,24,25,22,19,93,87,72,30.23,29.76,29.52,10,2,0,16,9,23,0.74,8,Fog-Snow,50
2012-12-27,30,28,26,25,23,21,96,83,72,30.04,29.74,29.52,10,7,1,29,10,38,0.03,8,Snow,311
2012-12-28,32,26,19,23,20,16,92,77,64,30.16,30.09,30.01,10,8,4,14,7,21,0.00,3,,305
2012-12-29,32,28,24,27,24,20,93,86,69,29.99,29.71,29.55,10,3,0,24,4,38,0.32,8,Fog-Snow,357
2012-12-30,28,26,24,22,19,16,75,72,69,30.31,30.13,29.86,10,5,1,34,21,45,0.00,7,Snow,301
2012-12-31,37,28,19,29,21,15,81,70,42,30.29,30.09,29.92,10,10,2,23,14,31,0.00,3,Snow,246